createdAt,value
2022-11-30T00:01:35.516Z,101640.31
2022-11-30T00:04:02.166Z,101640.31
2022-11-30T00:06:28.879Z,101634.97
2022-11-30T00:08:58.300Z,101637.53
2022-11-30T00:11:29.233Z,101634.97
2022-11-30T00:13:57.866Z,101632.31
2022-11-30T00:16:24.623Z,101632.38
2022-11-30T00:18:53.417Z,101626.97
2022-11-30T00:21:20.248Z,101635.06
2022-11-30T00:23:48.604Z,101641.16
2022-11-30T00:26:21.935Z,101634.88
2022-11-30T00:28:48.820Z,101635.91
2022-11-30T00:31:19.709Z,101641.25
2022-11-30T00:33:46.984Z,101636.94
2022-11-30T00:36:22.644Z,101644.00
2022-11-30T00:38:51.976Z,101635.91
2022-11-30T00:41:20.376Z,101636.94
2022-11-30T00:43:47.799Z,101645.03
2022-11-30T00:46:15.107Z,101645.13
2022-11-30T00:48:42.241Z,101647.69
2022-11-30T00:51:11.988Z,101645.88
2022-11-30T00:53:40.905Z,101637.03
2022-11-30T00:56:13.549Z,101644.19
2022-11-30T00:58:41.310Z,101644.25
2022-11-30T01:01:12.577Z,101641.00
2022-11-30T01:03:39.263Z,101644.38
2022-11-30T01:06:09.681Z,101650.56
2022-11-30T01:08:36.544Z,101639.88
2022-11-30T01:11:22.712Z,101654.25
2022-11-30T01:13:49.680Z,101658.63
2022-11-30T01:16:24.119Z,101663.91
2022-11-30T01:18:51.308Z,101655.03
2022-11-30T01:21:24.006Z,101655.91
2022-11-30T01:23:52.241Z,101656.75
2022-11-30T01:26:19.865Z,101655.91
2022-11-30T01:28:53.350Z,101664.69
2022-11-30T01:31:25.565Z,101664.41
2022-11-30T01:33:57.310Z,101671.56
2022-11-30T01:36:26.796Z,101673.28
2022-11-30T01:38:57.979Z,101669.75
2022-11-30T01:41:35.597Z,101684.81
2022-11-30T01:44:04.955Z,101679.47
2022-11-30T01:47:00.736Z,101686.44
2022-11-30T01:49:45.733Z,101684.75
2022-11-30T01:52:25.780Z,101682.06
2022-11-30T01:55:04.556Z,101683.69
2022-11-30T01:57:43.985Z,101687.50
2022-11-30T02:00:16.246Z,101685.72
2022-11-30T02:03:53.945Z,101681.22
2022-11-30T02:06:24.646Z,101686.56
2022-11-30T02:08:54.049Z,101682.06
2022-11-30T02:11:22.146Z,101680.38
2022-11-30T02:14:22.577Z,101674.91
2022-11-30T02:17:36.133Z,101680.25
2022-11-30T02:20:52.608Z,101684.81
2022-11-30T02:23:41.108Z,101682.06
2022-11-30T02:26:29.385Z,101679.47
2022-11-30T02:29:24.111Z,101682.06
2022-11-30T02:32:25.355Z,101680.50
2022-11-30T02:34:55.973Z,101670.69
2022-11-30T02:37:27.990Z,101668.91
2022-11-30T02:39:54.925Z,101668.03
2022-11-30T02:42:21.678Z,101661.06
2022-11-30T02:44:53.185Z,101667.34
2022-11-30T02:47:38.872Z,101669.91
2022-11-30T02:50:42.531Z,101669.06
2022-11-30T02:53:12.242Z,101658.31
2022-11-30T02:55:41.771Z,101664.50
2022-11-30T02:58:12.196Z,101668.78
2022-11-30T03:00:38.822Z,101670.63
2022-11-30T03:03:05.567Z,101664.41
2022-11-30T03:05:32.935Z,101667.09
2022-11-30T03:07:59.761Z,101670.63
2022-11-30T03:10:26.423Z,101676.81
2022-11-30T03:12:53.073Z,101680.38
2022-11-30T03:15:19.753Z,101674.13
2022-11-30T03:17:46.375Z,101675.88
2022-11-30T03:20:13.112Z,101678.44
2022-11-30T03:22:39.784Z,101667.88
2022-11-30T03:25:10.027Z,101672.25
2022-11-30T03:27:36.737Z,101668.53
2022-11-30T03:30:08.023Z,101669.56
2022-11-30T03:32:34.853Z,101674.06
2022-11-30T03:35:01.453Z,101681.09
2022-11-30T03:37:28.134Z,101683.03
2022-11-30T03:39:58.104Z,101683.69
2022-11-30T03:42:25.319Z,101687.34
2022-11-30T03:44:51.977Z,101684.66
2022-11-30T03:47:18.795Z,101684.66
2022-11-30T03:49:48.260Z,101683.63
2022-11-30T03:52:14.961Z,101672.25
2022-11-30T03:54:41.624Z,101683.78
2022-11-30T03:57:08.400Z,101678.28
2022-11-30T03:59:38.132Z,101684.66
2022-11-30T04:02:13.911Z,101688.00
2022-11-30T04:04:40.586Z,101684.56
2022-11-30T04:07:07.181Z,101685.72
2022-11-30T04:09:33.778Z,101692.81
2022-11-30T04:12:00.407Z,101699.06
2022-11-30T04:14:27.040Z,101696.28
2022-11-30T04:16:53.734Z,101690.78
2022-11-30T04:19:20.380Z,101700.56
2022-11-30T04:21:47.807Z,101699.66
2022-11-30T04:24:14.491Z,101699.97
2022-11-30T04:26:41.335Z,101705.06
2022-11-30T04:29:11.101Z,101704.28
2022-11-30T04:31:37.814Z,101710.75
2022-11-30T04:34:04.551Z,101714.97
2022-11-30T04:36:31.158Z,101715.81
2022-11-30T04:39:00.686Z,101710.59
2022-11-30T04:41:27.293Z,101715.75
2022-11-30T04:43:53.893Z,101719.44
2022-11-30T04:46:23.715Z,101717.56
2022-11-30T04:48:50.378Z,101711.44
2022-11-30T04:51:17.059Z,101709.72
2022-11-30T04:53:43.755Z,101718.59
2022-11-30T04:56:14.757Z,101714.19
2022-11-30T04:58:41.411Z,101721.34
2022-11-30T05:01:11.354Z,101723.16
2022-11-30T05:03:38.007Z,101721.25
2022-11-30T05:06:05.219Z,101718.50
2022-11-30T05:08:31.949Z,101715.06
2022-11-30T05:10:59.313Z,101722.19
2022-11-30T05:13:30.020Z,101725.66
2022-11-30T05:16:05.833Z,101717.56
2022-11-30T05:18:34.974Z,101726.69
2022-11-30T05:21:01.689Z,101725.81
2022-11-30T05:23:31.838Z,101729.28
2022-11-30T05:26:01.783Z,101727.53
2022-11-30T05:28:31.502Z,101742.78
2022-11-30T05:31:06.200Z,101729.28
2022-11-30T05:33:33.741Z,101739.00
2022-11-30T05:36:10.684Z,101734.63
2022-11-30T05:38:37.743Z,101731.25
2022-11-30T05:41:10.075Z,101741.78
2022-11-30T05:43:37.205Z,101745.19
2022-11-30T05:46:08.023Z,101754.09
2022-11-30T05:48:36.082Z,101755.97
2022-11-30T05:51:15.494Z,101762.88
2022-11-30T05:53:44.768Z,101757.44
2022-11-30T05:56:17.679Z,101764.66
2022-11-30T05:58:46.659Z,101752.34
2022-11-30T06:01:24.808Z,101759.31
2022-11-30T06:25:19.603Z,101761.13
2022-11-30T06:27:46.255Z,101765.63
2022-11-30T06:30:14.291Z,101772.66
2022-11-30T06:32:46.589Z,101772.66
2022-11-30T06:40:37.367Z,101775.25
2022-11-30T06:45:47.495Z,101777.88
2022-11-30T06:48:15.001Z,101779.56
2022-11-30T06:53:23.274Z,101784.22
2022-11-30T06:55:49.896Z,101787.59
2022-11-30T06:58:16.611Z,101789.47
2022-11-30T07:11:36.552Z,101793.00
2022-11-30T07:14:03.307Z,101799.13
2022-11-30T07:19:08.623Z,101803.69
2022-11-30T07:21:35.467Z,101807.13
2022-11-30T07:24:20.519Z,101810.50
2022-11-30T07:26:47.210Z,101810.75
2022-11-30T07:31:57.971Z,101808.78
2022-11-30T07:34:30.114Z,101814.03
2022-11-30T07:45:08.445Z,101823.78
2022-11-30T07:55:43.879Z,101827.22
2022-11-30T08:27:50.187Z,101847.72
2022-11-30T08:30:19.415Z,101845.50
2022-11-30T08:32:46.046Z,101845.56
2022-11-30T08:35:12.615Z,101834.28
2022-11-30T08:37:39.248Z,101848.88
2022-11-30T08:40:10.883Z,101853.19
2022-11-30T08:42:37.633Z,101850.41
2022-11-30T08:45:05.163Z,101854.91
2022-11-30T08:47:32.528Z,101863.88
2022-11-30T08:50:00.885Z,101859.44
2022-11-30T08:52:27.700Z,101864.53
2022-11-30T08:54:54.820Z,101868.09
2022-11-30T08:57:22.387Z,101863.75
2022-11-30T08:59:49.400Z,101869.09
2022-11-30T09:02:22.466Z,101875.22
2022-11-30T09:04:51.000Z,101875.22
2022-11-30T09:07:18.291Z,101868.09
2022-11-30T09:09:47.817Z,101872.03
2022-11-30T09:12:14.930Z,101873.06
2022-11-30T09:14:42.002Z,101879.91
2022-11-30T09:17:09.230Z,101878.09
2022-11-30T09:19:35.899Z,101878.94
2022-11-30T09:22:02.620Z,101872.75
2022-11-30T09:24:29.223Z,101882.56
2022-11-30T09:26:59.463Z,101882.22
2022-11-30T09:29:26.109Z,101884.47
2022-11-30T09:31:53.053Z,101883.88
2022-11-30T09:34:19.902Z,101892.81
2022-11-30T09:36:46.563Z,101896.09
2022-11-30T09:39:13.295Z,101896.56
2022-11-30T09:42:40.930Z,101888.72
2022-11-30T09:45:30.640Z,101895.44
2022-11-30T09:48:25.406Z,101893.88
2022-11-30T09:50:56.135Z,101893.13
2022-11-30T09:53:38.235Z,101888.88
2022-11-30T09:56:25.586Z,101892.97
2022-11-30T09:59:14.523Z,101892.25
2022-11-30T10:01:46.197Z,101889.16
2022-11-30T10:04:28.994Z,101888.72
2022-11-30T10:07:32.601Z,101892.59
2022-11-30T10:10:56.080Z,101893.97
2022-11-30T10:14:12.247Z,101889.94
2022-11-30T10:17:27.959Z,101888.41
2022-11-30T10:20:54.986Z,101884.22
2022-11-30T10:24:24.023Z,101882.59
2022-11-30T10:26:58.061Z,101882.69
2022-11-30T10:29:42.505Z,101881.56
2022-11-30T10:32:22.525Z,101881.56
2022-11-30T10:35:03.271Z,101888.19
2022-11-30T10:37:39.508Z,101880.19
2022-11-30T10:40:31.049Z,101873.47
2022-11-30T10:43:38.259Z,101880.53
2022-11-30T10:46:05.887Z,101881.91
2022-11-30T10:48:47.774Z,101877.69
2022-11-30T10:51:15.023Z,101880.13
2022-11-30T10:53:41.618Z,101873.53
2022-11-30T10:56:14.880Z,101873.09
2022-11-30T10:59:12.753Z,101870.09
2022-11-30T11:01:42.480Z,101874.56
2022-11-30T11:04:12.452Z,101869.31
2022-11-30T11:06:56.138Z,101874.81
2022-11-30T11:09:39.353Z,101878.19
2022-11-30T11:12:25.977Z,101877.31
2022-11-30T11:15:29.932Z,101881.81
2022-11-30T11:18:27.533Z,101877.69
2022-11-30T11:21:07.416Z,101890.03
2022-11-30T11:23:44.625Z,101885.25
2022-11-30T11:26:24.739Z,101887.09
2022-11-30T11:28:56.185Z,101894.06
2022-11-30T11:31:46.439Z,101891.56
2022-11-30T11:34:35.810Z,101886.72
2022-11-30T11:37:22.418Z,101891.22
2022-11-30T11:40:16.670Z,101890.09
2022-11-30T11:42:54.836Z,101889.41
2022-11-30T11:45:38.877Z,101896.22
2022-11-30T11:48:40.284Z,101895.38
2022-11-30T11:51:11.056Z,101886.56
2022-11-30T11:54:18.743Z,101892.00
2022-11-30T11:56:46.140Z,101893.88
2022-11-30T11:59:39.155Z,101887.44
2022-11-30T12:02:50.756Z,101891.41
2022-11-30T12:05:43.347Z,101887.50
2022-11-30T12:08:30.797Z,101883.13
2022-11-30T12:11:14.411Z,101887.94
2022-11-30T12:13:47.292Z,101885.09
2022-11-30T12:16:58.082Z,101891.16
2022-11-30T12:19:37.301Z,101888.63
2022-11-30T12:22:45.429Z,101884.16
2022-11-30T12:25:27.996Z,101894.16
2022-11-30T12:28:37.248Z,101892.97
2022-11-30T12:31:18.419Z,101894.50
2022-11-30T12:34:32.352Z,101890.16
2022-11-30T12:37:29.929Z,101893.38
2022-11-30T12:40:53.291Z,101896.75
2022-11-30T12:43:52.668Z,101895.91
2022-11-30T12:46:46.464Z,101902.50
2022-11-30T12:49:44.420Z,101896.72
2022-11-30T12:52:47.187Z,101894.06
2022-11-30T12:56:02.838Z,101902.16
2022-11-30T12:59:00.497Z,101896.41
2022-11-30T13:01:39.678Z,101898.13
2022-11-30T13:04:32.997Z,101904.75
2022-11-30T13:07:38.936Z,101898.81
2022-11-30T13:10:44.527Z,101895.44
2022-11-30T13:13:28.896Z,101898.91
2022-11-30T13:16:04.482Z,101898.19
2022-11-30T13:18:34.705Z,101901.91
2022-11-30T13:21:25.728Z,101907.19
2022-11-30T13:24:14.419Z,101901.31
2022-11-30T13:27:14.208Z,101902.50
2022-11-30T13:30:15.701Z,101907.84
2022-11-30T13:32:57.730Z,101913.38
2022-11-30T13:35:28.035Z,101912.78
2022-11-30T13:38:38.055Z,101920.69
2022-11-30T13:41:09.064Z,101916.38
2022-11-30T13:43:47.854Z,101916.75
2022-11-30T13:46:23.807Z,101910.88
2022-11-30T13:49:12.500Z,101908.28
2022-11-30T13:51:44.186Z,101907.16
2022-11-30T13:54:46.862Z,101902.84
2022-11-30T13:57:30.062Z,101905.34
2022-11-30T14:00:27.005Z,101903.34
2022-11-30T14:02:58.181Z,101902.31
2022-11-30T14:05:48.420Z,101903.19
2022-11-30T14:08:20.996Z,101907.69
2022-11-30T14:11:14.564Z,101911.28
2022-11-30T14:13:42.278Z,101915.50
2022-11-30T14:16:29.846Z,101906.88
2022-11-30T14:19:00.820Z,101913.69
2022-11-30T14:21:36.726Z,101916.28
2022-11-30T14:24:23.784Z,101920.00
2022-11-30T14:26:52.495Z,101927.47
2022-11-30T14:29:35.585Z,101918.16
2022-11-30T14:32:30.184Z,101925.19
2022-11-30T14:35:16.658Z,101921.69
2022-11-30T14:38:00.274Z,101937.16
2022-11-30T14:40:30.608Z,101927.28
2022-11-30T14:43:04.103Z,101930.25
2022-11-30T14:45:35.134Z,101930.19
2022-11-30T14:48:15.062Z,101930.00
2022-11-30T14:50:51.885Z,101934.44
2022-11-30T14:53:57.160Z,101931.94
2022-11-30T14:56:44.080Z,101932.16
2022-11-30T14:59:48.872Z,101928.63
2022-11-30T15:02:38.641Z,101930.44
2022-11-30T15:05:12.860Z,101925.25
2022-11-30T15:07:43.581Z,101928.78
2022-11-30T15:13:21.325Z,101929.88
2022-11-30T15:15:56.069Z,101936.88
2022-11-30T15:18:25.916Z,101930.75
2022-11-30T15:21:12.185Z,101942.69
2022-11-30T15:23:38.927Z,101937.97
2022-11-30T15:26:42.110Z,101946.94
2022-11-30T15:29:23.767Z,101941.66
2022-11-30T15:32:01.596Z,101943.41
2022-11-30T15:34:53.500Z,101943.47
2022-11-30T15:37:50.118Z,101947.88
2022-11-30T15:40:32.683Z,101954.41
2022-11-30T15:43:01.620Z,101949.84
2022-11-30T15:45:38.949Z,101948.09
2022-11-30T15:48:33.476Z,101949.06
2022-11-30T15:51:01.492Z,101948.34
2022-11-30T15:53:36.403Z,101958.03
2022-11-30T15:56:21.863Z,101957.06
2022-11-30T15:59:30.885Z,101957.88
2022-11-30T16:02:27.598Z,101947.25
2022-11-30T16:04:57.232Z,101950.88
2022-11-30T16:07:39.015Z,101953.63
2022-11-30T16:10:41.634Z,101950.34
2022-11-30T16:13:19.232Z,101949.47
2022-11-30T16:15:51.177Z,101959.19
2022-11-30T16:18:27.968Z,101956.34
2022-11-30T16:21:00.205Z,101952.91
2022-11-30T16:23:28.850Z,101960.28
2022-11-30T16:25:56.211Z,101959.19
2022-11-30T16:28:23.418Z,101963.75
2022-11-30T16:30:53.685Z,101958.34
2022-11-30T16:33:30.552Z,101964.72
2022-11-30T16:36:12.791Z,101965.50
2022-11-30T16:38:39.459Z,101965.31
2022-11-30T16:41:28.531Z,101974.19
2022-11-30T16:43:59.850Z,101975.94
2022-11-30T16:46:29.895Z,101973.28
2022-11-30T16:48:59.991Z,101983.94
2022-11-30T16:51:36.370Z,101980.56
2022-11-30T16:54:04.263Z,101986.63
2022-11-30T16:56:31.067Z,101986.50
2022-11-30T16:58:57.922Z,101976.78
2022-11-30T17:01:44.259Z,101979.41
2022-11-30T17:04:23.919Z,101985.66
2022-11-30T17:07:02.873Z,101992.03
2022-11-30T17:09:30.366Z,101991.84
2022-11-30T17:11:57.334Z,101988.31
2022-11-30T17:14:24.150Z,101997.13
2022-11-30T17:41:18.832Z,102010.78
2022-11-30T18:05:21.595Z,102028.31
2022-11-30T18:07:57.467Z,102029.16
2022-11-30T18:21:15.367Z,102040.00
2022-11-30T18:53:23.931Z,102060.88
2022-11-30T19:06:52.791Z,102066.38
2022-11-30T19:09:20.032Z,102068.34
2022-11-30T19:11:50.600Z,102069.34
2022-11-30T19:38:43.027Z,102084.50
2022-11-30T20:29:50.438Z,102107.38
2022-11-30T20:45:43.401Z,102106.25
2022-11-30T21:07:18.074Z,102121.25
2022-11-30T21:12:29.040Z,102120.38
2022-11-30T21:14:55.782Z,102118.56
2022-11-30T21:22:45.303Z,102122.94
2022-11-30T21:25:15.164Z,102122.72
2022-11-30T21:27:41.803Z,102123.53
2022-11-30T21:30:10.565Z,102125.34
2022-11-30T21:32:37.240Z,102122.44
2022-11-30T21:35:04.490Z,102136.59
2022-11-30T21:37:31.170Z,102131.25
2022-11-30T21:39:57.788Z,102134.72
2022-11-30T21:42:27.152Z,102126.78
2022-11-30T21:44:53.783Z,102139.09
2022-11-30T21:47:20.416Z,102132.09
2022-11-30T21:49:47.053Z,102133.13
2022-11-30T21:52:13.651Z,102130.41
2022-11-30T21:54:40.324Z,102119.09
2022-11-30T21:57:07.083Z,102122.44
2022-11-30T21:59:33.760Z,102123.25
2022-11-30T22:02:00.497Z,102121.66
2022-11-30T22:04:27.176Z,102122.44
2022-11-30T22:06:53.777Z,102125.97
2022-11-30T22:09:20.479Z,102127.78
2022-11-30T22:11:47.173Z,102130.53
2022-11-30T22:14:17.371Z,102129.59
2022-11-30T22:16:44.898Z,102127.94
2022-11-30T22:19:15.746Z,102130.41
2022-11-30T22:21:49.470Z,102133.97
2022-11-30T22:24:16.907Z,102127.84
2022-11-30T22:26:46.223Z,102128.66
2022-11-30T22:29:22.290Z,102123.31
2022-11-30T22:31:55.538Z,102125.91
2022-11-30T22:34:26.356Z,102121.59
2022-11-30T22:36:52.957Z,102127.84
2022-11-30T22:39:21.997Z,102136.59
2022-11-30T22:41:56.010Z,102140.13
2022-11-30T22:44:25.525Z,102141.00
2022-11-30T22:46:52.213Z,102129.66
2022-11-30T22:49:21.599Z,102137.44
2022-11-30T22:51:50.473Z,102143.75
2022-11-30T22:54:17.908Z,102140.13
2022-11-30T22:56:46.396Z,102131.19
2022-11-30T22:59:15.169Z,102130.41
2022-11-30T23:01:47.402Z,102128.53
2022-11-30T23:04:25.384Z,102134.72
2022-11-30T23:06:52.450Z,102138.34
2022-11-30T23:09:23.903Z,102132.03
2022-11-30T23:11:51.838Z,102136.53
2022-11-30T23:14:19.169Z,102139.09
2022-11-30T23:16:46.791Z,102145.31
2022-11-30T23:19:14.829Z,102144.44
2022-11-30T23:21:44.934Z,102145.38
2022-11-30T23:24:23.766Z,102142.88
2022-11-30T23:26:50.813Z,102145.44
2022-11-30T23:29:21.255Z,102142.88
2022-11-30T23:31:48.538Z,102145.44
2022-11-30T23:34:24.566Z,102141.94
2022-11-30T23:36:51.403Z,102142.94
2022-11-30T23:39:20.826Z,102144.59
2022-11-30T23:41:48.258Z,102142.94
2022-11-30T23:44:15.322Z,102140.34
2022-11-30T23:46:44.845Z,102135.84
2022-11-30T23:49:14.202Z,102138.53
2022-11-30T23:51:42.119Z,102139.47
2022-11-30T23:54:08.803Z,102141.13
2022-11-30T23:56:35.442Z,102129.81
2022-11-30T23:59:02.185Z,102135.16
